Defiance — WDG2047 — position and weather

sailwx.info

Track history (hours):
 
Tides and Currents Weather Stations Pressure Air Temp Water Temp Dewpoint Dewpoint Depression Visibility Wind Speed Wind Dir Waves Ship Positions

Defiance

Owner: Grand River Navigation Company, Traverse City, MI. More information available from US FCC via Universal Licensing System and Coast Guard Vessel Documentation Center.

Last reported at 2017-Nov-18 03:00 UTC. Time now 2017-Nov-18 11:50 UTC.
Position N 41°42' W 087°12'.

Length 46 m; draft 7.3 m.

Type: Cargo ship. MMSI: 367511590.

Wind from 190 at 22 knots

Barometer 1004.0 mb
Air temperature 4.9 ° C
Visibility: greater than 10.8 NM

Date/timePositionNaut miles runAvg speedWind from/ knotsBaromVisibWave heightAir tempDewpointWater temp
2017-Nov-18 03:00N 41°42' W 087°12'13 1.2 190 / 221004.010.8 4.9
2017-Nov-17 16:00N 41°54' W 087°06'2412.0 160 / 211017.610.8 3.3
2017-Nov-17 14:00N 42°18' W 087°06'13 6.4 150 / 241019.210.8 2.7
2017-Nov-17 12:00N 42°30' W 087°12'4310.7 120 / 221019.9 5.4 3.8
2017-Nov-17 08:00N 43°12' W 087°00'2412.2 110 / 131022.6 5.4 1.6
2017-Nov-17 06:00N 43°36' W 086°54'2412.2 110 / 81023.3 5.4 -0.5
2017-Nov-17 04:00N 44°00' W 086°48'2412.2 090 / 141023.710.8 0.5
2017-Nov-17 02:00N 44°24' W 086°42'3310.9 050 / 81024.710.8 1.1
2017-Nov-16 23:00N 44°54' W 086°24'25 8.5 360 / 141024.0 -0.0
2017-Nov-16 20:00N 45°18' W 086°12'2512.7 340 / 221022.310.8 -1.6
2017-Nov-16 18:00N 45°42' W 086°00'2110.3 350 / 261021.610.8 -2.2
2017-Nov-16 16:00N 45°54' W 085°36'2010.4 360 / 281018.210.8 -1.1
2017-Nov-16 14:06N 45°52' W 085°08'110.0
2017-Nov-16 14:00N 45°52' W 085°06'2247.6
2017-Nov-16 14:00N 45°54' W 085°06'611.5 340 / 331015.210.8 -1.1
2017-Nov-16 13:30N 45°51' W 084°59'510.0
2017-Nov-16 13:00N 45°50' W 084°52'7495.3
2017-Nov-16 13:00N 45°48' W 084°42'3 5.4 320 / 241010.8 5.4 -1.6
2017-Nov-16 12:30N 45°49' W 084°45'6 9.6
2017-Nov-16 11:51N 45°46' W 084°37'3 9.9
2017-Nov-16 11:30N 45°45' W 084°33'21 8.3
2017-Nov-16 09:00N 45°36' W 084°06'815.0 310 / 281005.0 5.4 2.7
2017-Nov-16 08:26N 45°33' W 083°55'612.9
2017-Nov-16 08:00N 45°30' W 083°48'2212.5 290 / 301001.3 2.2 2.2
2017-Nov-16 07:59N 45°30' W 083°50'510.0
2017-Nov-16 07:30N 45°26' W 083°47'2 3.2
2017-Nov-16 07:00N 45°25' W 083°47'0 0.0
2017-Nov-16 06:29N 45°25' W 083°47'0 0.0
2017-Nov-16 05:58N 45°25' W 083°47'0 0.0
2017-Nov-16 05:29N 45°25' W 083°47'0 0.0
2017-Nov-16 04:58N 45°25' W 083°47'0 0.0
2017-Nov-16 04:28N 45°25' W 083°47'0 0.0
2017-Nov-16 03:59N 45°25' W 083°47'0 0.0
2017-Nov-16 03:28N 45°25' W 083°47'0 0.1
2017-Nov-16 02:59N 45°25' W 083°47'0 0.0
2017-Nov-16 02:28N 45°25' W 083°47'0 0.0
2017-Nov-16 01:58N 45°25' W 083°47'0 0.1
2017-Nov-16 01:28N 45°25' W 083°47'0 0.0
2017-Nov-16 00:58N 45°25' W 083°47'0 0.0
2017-Nov-16 00:29N 45°25' W 083°47'0 0.0
2017-Nov-15 23:58N 45°25' W 083°47'0 0.0
2017-Nov-15 23:28N 45°25' W 083°47'0 0.0
2017-Nov-15 22:59N 45°25' W 083°47'0 0.0
2017-Nov-15 22:30N 45°25' W 083°47'0 0.0
2017-Nov-15 21:58N 45°25' W 083°47'0 0.0
2017-Nov-15 21:29N 45°25' W 083°47'0 0.0
2017-Nov-15 20:58N 45°25' W 083°47'0 0.0
2017-Nov-15 20:28N 45°25' W 083°47'0 0.0
2017-Nov-15 19:58N 45°25' W 083°47'0 0.0
2017-Nov-15 19:28N 45°25' W 083°47'0 0.0
2017-Nov-15 18:59N 45°25' W 083°47'0 0.0
2017-Nov-15 18:28N 45°25' W 083°47'0 0.0
2017-Nov-15 17:58N 45°25' W 083°47'0 0.0
2017-Nov-15 17:28N 45°25' W 083°47'0 0.0
2017-Nov-15 16:58N 45°25' W 083°47'0 0.0
2017-Nov-15 16:28N 45°25' W 083°47'0 0.0
2017-Nov-15 15:58N 45°25' W 083°47'0 0.0
2017-Nov-15 15:28N 45°25' W 083°47'0 0.0
2017-Nov-15 14:58N 45°25' W 083°47'0 0.1
2017-Nov-15 14:30N 45°25' W 083°47'1 1.6
2017-Nov-15 14:00N 45°25' W 083°46'1 1.6
2017-Nov-15 13:30N 45°26' W 083°47'0 0.3
2017-Nov-15 13:00N 45°26' W 083°47'0 0.3
2017-Nov-15 12:29N 45°26' W 083°47'0 0.0
2017-Nov-15 11:59N 45°26' W 083°47'0 0.0
2017-Nov-15 11:29N 45°26' W 083°47'0 0.0
2017-Nov-15 10:59N 45°26' W 083°47'0 0.0
2017-Nov-15 10:29N 45°26' W 083°47'0 0.0
2017-Nov-15 09:59N 45°26' W 083°47'0 0.0
2017-Nov-15 09:29N 45°26' W 083°47'0 0.0
2017-Nov-15 08:59N 45°26' W 083°47'0 0.0
2017-Nov-15 08:29N 45°26' W 083°47'0 0.0
2017-Nov-15 07:59N 45°26' W 083°47'0 0.0
2017-Nov-15 07:29N 45°26' W 083°47'4 8.2
2017-Nov-15 07:00N 45°24' W 083°42'4336.0 130 / 91017.9 2.2 2.2
2017-Nov-15 06:59N 45°26' W 083°47'0 0.0
2017-Nov-15 06:29N 45°26' W 083°47'0 0.0
2017-Nov-15 05:59N 45°26' W 083°47'0 0.0
2017-Nov-15 05:29N 45°26' W 083°47'4 8.2
2017-Nov-15 05:00N 45°24' W 083°42'4320.8 160 / 111019.9 5.4 2.2
2017-Nov-15 04:59N 45°26' W 083°47'0 0.0
2017-Nov-15 04:29N 45°26' W 083°47'0 0.0
2017-Nov-15 03:59N 45°26' W 083°47'0 0.0
2017-Nov-15 03:29N 45°26' W 083°47'0 0.0
2017-Nov-15 02:59N 45°26' W 083°47'0 0.0
2017-Nov-15 02:29N 45°26' W 083°47'0 0.1
2017-Nov-15 02:00N 45°26' W 083°47'3 6.9
2017-Nov-15 01:30N 45°26' W 083°42'611.2
2017-Nov-15 01:00N 45°25' W 083°34'6410.6
2017-Nov-14 19:00N 44°30' W 082°48'2512.7 230 / 151025.010.8 8.8
2017-Nov-14 17:00N 44°06' W 082°36'2412.2 240 / 81026.710.8 17.2
2017-Nov-14 15:00N 43°42' W 082°30'1212.0 260 / 81027.410.8 12.2
2017-Nov-14 14:00N 43°30' W 082°30'19 9.3 170 / 121028.410.8 5.5
2017-Nov-14 12:00N 43°12' W 082°24'84 8.4 260 / 101028.4 -0.5
2017-Nov-14 02:00N 41°54' W 083°06'15 0.9 210 / 111029.4 5.4 4.9
2017-Nov-13 10:00N 41°48' W 082°48'18 6.0 360 / 151027.7 5.4 2.2
2017-Nov-13 07:00N 41°36' W 082°30'45 2.6 010 / 171025.3 5.4 3.3
2017-Nov-12 14:00N 41°36' W 083°30'6432.0 130 / 21026.7 5.4 4.4
2017-Nov-12 12:00N 41°24' W 082°06'3636.2 1031.1 5.4 3.8
2017-Nov-12 11:00N 41°42' W 082°48'45 2.8 210 / 91027.410.8 3.3
2017-Nov-11 19:00N 41°48' W 081°48'2211.2 110 / 71029.410.8 2.2
2017-Nov-11 17:00N 41°48' W 082°18'18 8.9 130 / 101031.110.8 -0.5
2017-Nov-11 15:00N 41°48' W 082°42'91 8.3 150 / 221032.510.8 -1.6
2017-Nov-11 04:00N 43°18' W 082°24'18 9.0 130 / 71036.210.8 -3.8
2017-Nov-11 02:00N 43°36' W 082°24'18 9.0 020 / 51036.510.8 -4.4
2017-Nov-11 00:00N 43°54' W 082°24'2412.2 360 / 41036.910.8 -5.5
2017-Nov-10 22:00N 44°18' W 082°30'3310.9 340 / 101036.910.8 -6.1
2017-Nov-10 19:00N 44°48' W 082°48'18 9.2 320 / 121036.210.8 -6.6
2017-Nov-10 17:00N 45°06' W 082°54'2914.9 320 / 161036.210.8 -8.8
2017-Nov-10 15:01N 45°27' W 083°24'3133.1
2017-Nov-10 15:00N 45°30' W 083°24'333.3 330 / 161036.210.8 -9.4
2017-Nov-10 14:55N 45°27' W 083°25'410.9
2017-Nov-10 14:30N 45°30' W 083°30'510.8
2017-Nov-10 14:00N 45°34' W 083°36'510.8
2017-Nov-10 13:30N 45°37' W 083°42'510.8
2017-Nov-10 13:00N 45°41' W 083°48'1166.8
2017-Nov-10 13:00N 45°42' W 083°48'14 7.0 360 / 181034.1 -12.7
2017-Nov-10 11:00N 45°48' W 084°06'8173.8 360 / 211033.5 -14.4
2017-Nov-10 10:57N 45°55' W 084°12'8 0.5
2017-Nov-09 19:00N 45°48' W 084°06'7 7.3 320 / 301012.810.8 -3.3
2017-Nov-09 18:00N 45°42' W 084°00'1312.7 300 / 311011.510.8 -1.1
2017-Nov-09 17:00N 45°30' W 083°54'3 6.3 310 / 281010.810.8 -0.5
2017-Nov-09 16:34N 45°32' W 083°51'110.0
2017-Nov-09 16:27N 45°31' W 083°50'510.3
2017-Nov-09 16:00N 45°27' W 083°47'0 0.7
2017-Nov-09 15:30N 45°26' W 083°47'0 0.7
2017-Nov-09 14:58N 45°26' W 083°47'0 0.2
2017-Nov-09 14:28N 45°26' W 083°47'0 0.1
2017-Nov-09 13:58N 45°26' W 083°47'0 0.0
2017-Nov-09 13:28N 45°26' W 083°47'0 0.0
2017-Nov-09 12:58N 45°26' W 083°47'0 0.0
2017-Nov-09 12:28N 45°26' W 083°47'0 0.1
2017-Nov-09 11:58N 45°26' W 083°47'0 0.0
2017-Nov-09 11:28N 45°26' W 083°47'0 0.0
2017-Nov-09 10:58N 45°26' W 083°47'0 0.1
2017-Nov-09 10:28N 45°26' W 083°47'0 0.2
2017-Nov-09 09:58N 45°26' W 083°47'0 0.1
2017-Nov-09 09:30N 45°26' W 083°47'0 0.1
2017-Nov-09 08:58N 45°26' W 083°47'0 0.1
2017-Nov-09 08:28N 45°26' W 083°47'0 0.1
2017-Nov-09 07:58N 45°26' W 083°47'0 0.1
2017-Nov-09 07:28N 45°26' W 083°47'0 0.1
2017-Nov-09 06:58N 45°26' W 083°47'1 3.0
2017-Nov-09 06:30N 45°27' W 083°46'511.0
2017-Nov-09 06:00N 45°33' W 083°48'5322.3
2017-Nov-09 06:00N 45°30' W 083°42'1118.5 230 / 121017.6 5.4 1.6
2017-Nov-09 05:25N 45°39' W 083°49'3 6.9
2017-Nov-09 05:00N 45°42' W 083°48'1312.7 300 / 81017.6 5.4 1.1
2017-Nov-09 04:00N 45°54' W 083°54'   310 / 101018.210.8 -0.0
Track history (hours):
 
Tides and Currents Weather Stations Pressure Air Temp Water Temp Dewpoint Dewpoint Depression Visibility Wind Speed Wind Dir Waves Ship Positions

Defiance

Owner: Grand River Navigation Company, Traverse City, MI. More information available from US FCC via Universal Licensing System and Coast Guard Vessel Documentation Center.

Last reported at 2017-Nov-18 03:00 UTC. Time now 2017-Nov-18 11:50 UTC.
Position N 41°42' W 087°12'.

Length 46 m; draft 7.3 m.

Type: Cargo ship. MMSI: 367511590.

Wind from 190 at 22 knots

Barometer 1004.0 mb
Air temperature 4.9 ° C
Visibility: greater than 10.8 NM

Date/timePositionNaut miles runAvg speedWind from/ knotsBaromVisibWave heightAir tempDewpointWater temp
2017-Nov-18 03:00N 41°42' W 087°12'13 1.2 190 / 221004.010.8 4.9
2017-Nov-17 16:00N 41°54' W 087°06'2412.0 160 / 211017.610.8 3.3
2017-Nov-17 14:00N 42°18' W 087°06'13 6.4 150 / 241019.210.8 2.7
2017-Nov-17 12:00N 42°30' W 087°12'4310.7 120 / 221019.9 5.4 3.8
2017-Nov-17 08:00N 43°12' W 087°00'2412.2 110 / 131022.6 5.4 1.6
2017-Nov-17 06:00N 43°36' W 086°54'2412.2 110 / 81023.3 5.4 -0.5
2017-Nov-17 04:00N 44°00' W 086°48'2412.2 090 / 141023.710.8 0.5
2017-Nov-17 02:00N 44°24' W 086°42'3310.9 050 / 81024.710.8 1.1
2017-Nov-16 23:00N 44°54' W 086°24'25 8.5 360 / 141024.0 -0.0
2017-Nov-16 20:00N 45°18' W 086°12'2512.7 340 / 221022.310.8 -1.6
2017-Nov-16 18:00N 45°42' W 086°00'2110.3 350 / 261021.610.8 -2.2
2017-Nov-16 16:00N 45°54' W 085°36'2010.4 360 / 281018.210.8 -1.1
2017-Nov-16 14:06N 45°52' W 085°08'110.0
2017-Nov-16 14:00N 45°52' W 085°06'2247.6
2017-Nov-16 14:00N 45°54' W 085°06'611.5 340 / 331015.210.8 -1.1
2017-Nov-16 13:30N 45°51' W 084°59'510.0
2017-Nov-16 13:00N 45°50' W 084°52'7495.3
2017-Nov-16 13:00N 45°48' W 084°42'3 5.4 320 / 241010.8 5.4 -1.6
2017-Nov-16 12:30N 45°49' W 084°45'6 9.6
2017-Nov-16 11:51N 45°46' W 084°37'3 9.9
2017-Nov-16 11:30N 45°45' W 084°33'21 8.3
2017-Nov-16 09:00N 45°36' W 084°06'815.0 310 / 281005.0 5.4 2.7
2017-Nov-16 08:26N 45°33' W 083°55'612.9
2017-Nov-16 08:00N 45°30' W 083°48'2212.5 290 / 301001.3 2.2 2.2
2017-Nov-16 07:59N 45°30' W 083°50'510.0
2017-Nov-16 07:30N 45°26' W 083°47'2 3.2
2017-Nov-16 07:00N 45°25' W 083°47'0 0.0
2017-Nov-16 06:29N 45°25' W 083°47'0 0.0
2017-Nov-16 05:58N 45°25' W 083°47'0 0.0
2017-Nov-16 05:29N 45°25' W 083°47'0 0.0
2017-Nov-16 04:58N 45°25' W 083°47'0 0.0
2017-Nov-16 04:28N 45°25' W 083°47'0 0.0
2017-Nov-16 03:59N 45°25' W 083°47'0 0.0
2017-Nov-16 03:28N 45°25' W 083°47'0 0.1
2017-Nov-16 02:59N 45°25' W 083°47'0 0.0
2017-Nov-16 02:28N 45°25' W 083°47'0 0.0
2017-Nov-16 01:58N 45°25' W 083°47'0 0.1
2017-Nov-16 01:28N 45°25' W 083°47'0 0.0
2017-Nov-16 00:58N 45°25' W 083°47'0 0.0
2017-Nov-16 00:29N 45°25' W 083°47'0 0.0
2017-Nov-15 23:58N 45°25' W 083°47'0 0.0
2017-Nov-15 23:28N 45°25' W 083°47'0 0.0
2017-Nov-15 22:59N 45°25' W 083°47'0 0.0
2017-Nov-15 22:30N 45°25' W 083°47'0 0.0
2017-Nov-15 21:58N 45°25' W 083°47'0 0.0
2017-Nov-15 21:29N 45°25' W 083°47'0 0.0
2017-Nov-15 20:58N 45°25' W 083°47'0 0.0
2017-Nov-15 20:28N 45°25' W 083°47'0 0.0
2017-Nov-15 19:58N 45°25' W 083°47'0 0.0
2017-Nov-15 19:28N 45°25' W 083°47'0 0.0
2017-Nov-15 18:59N 45°25' W 083°47'0 0.0
2017-Nov-15 18:28N 45°25' W 083°47'0 0.0
2017-Nov-15 17:58N 45°25' W 083°47'0 0.0
2017-Nov-15 17:28N 45°25' W 083°47'0 0.0
2017-Nov-15 16:58N 45°25' W 083°47'0 0.0
2017-Nov-15 16:28N 45°25' W 083°47'0 0.0
2017-Nov-15 15:58N 45°25' W 083°47'0 0.0
2017-Nov-15 15:28N 45°25' W 083°47'0 0.0
2017-Nov-15 14:58N 45°25' W 083°47'0 0.1
2017-Nov-15 14:30N 45°25' W 083°47'1 1.6
2017-Nov-15 14:00N 45°25' W 083°46'1 1.6
2017-Nov-15 13:30N 45°26' W 083°47'0 0.3
2017-Nov-15 13:00N 45°26' W 083°47'0 0.3
2017-Nov-15 12:29N 45°26' W 083°47'0 0.0
2017-Nov-15 11:59N 45°26' W 083°47'0 0.0
2017-Nov-15 11:29N 45°26' W 083°47'0 0.0
2017-Nov-15 10:59N 45°26' W 083°47'0 0.0
2017-Nov-15 10:29N 45°26' W 083°47'0 0.0
2017-Nov-15 09:59N 45°26' W 083°47'0 0.0
2017-Nov-15 09:29N 45°26' W 083°47'0 0.0
2017-Nov-15 08:59N 45°26' W 083°47'0 0.0
2017-Nov-15 08:29N 45°26' W 083°47'0 0.0
2017-Nov-15 07:59N 45°26' W 083°47'0 0.0
2017-Nov-15 07:29N 45°26' W 083°47'4 8.2
2017-Nov-15 07:00N 45°24' W 083°42'4336.0 130 / 91017.9 2.2 2.2
2017-Nov-15 06:59N 45°26' W 083°47'0 0.0
2017-Nov-15 06:29N 45°26' W 083°47'0 0.0
2017-Nov-15 05:59N 45°26' W 083°47'0 0.0
2017-Nov-15 05:29N 45°26' W 083°47'4 8.2
2017-Nov-15 05:00N 45°24' W 083°42'4320.8 160 / 111019.9 5.4 2.2
2017-Nov-15 04:59N 45°26' W 083°47'0 0.0
2017-Nov-15 04:29N 45°26' W 083°47'0 0.0
2017-Nov-15 03:59N 45°26' W 083°47'0 0.0
2017-Nov-15 03:29N 45°26' W 083°47'0 0.0
2017-Nov-15 02:59N 45°26' W 083°47'0 0.0
2017-Nov-15 02:29N 45°26' W 083°47'0 0.1
2017-Nov-15 02:00N 45°26' W 083°47'3 6.9
2017-Nov-15 01:30N 45°26' W 083°42'611.2
2017-Nov-15 01:00N 45°25' W 083°34'6410.6
2017-Nov-14 19:00N 44°30' W 082°48'2512.7 230 / 151025.010.8 8.8
2017-Nov-14 17:00N 44°06' W 082°36'2412.2 240 / 81026.710.8 17.2
2017-Nov-14 15:00N 43°42' W 082°30'1212.0 260 / 81027.410.8 12.2
2017-Nov-14 14:00N 43°30' W 082°30'19 9.3 170 / 121028.410.8 5.5
2017-Nov-14 12:00N 43°12' W 082°24'84 8.4 260 / 101028.4 -0.5
2017-Nov-14 02:00N 41°54' W 083°06'15 0.9 210 / 111029.4 5.4 4.9
2017-Nov-13 10:00N 41°48' W 082°48'18 6.0 360 / 151027.7 5.4 2.2
2017-Nov-13 07:00N 41°36' W 082°30'45 2.6 010 / 171025.3 5.4 3.3
2017-Nov-12 14:00N 41°36' W 083°30'6432.0 130 / 21026.7 5.4 4.4
2017-Nov-12 12:00N 41°24' W 082°06'3636.2 1031.1 5.4 3.8
2017-Nov-12 11:00N 41°42' W 082°48'45 2.8 210 / 91027.410.8 3.3
2017-Nov-11 19:00N 41°48' W 081°48'2211.2 110 / 71029.410.8 2.2
2017-Nov-11 17:00N 41°48' W 082°18'18 8.9 130 / 101031.110.8 -0.5
2017-Nov-11 15:00N 41°48' W 082°42'91 8.3 150 / 221032.510.8 -1.6
2017-Nov-11 04:00N 43°18' W 082°24'18 9.0 130 / 71036.210.8 -3.8
2017-Nov-11 02:00N 43°36' W 082°24'18 9.0 020 / 51036.510.8 -4.4
2017-Nov-11 00:00N 43°54' W 082°24'2412.2 360 / 41036.910.8 -5.5
2017-Nov-10 22:00N 44°18' W 082°30'3310.9 340 / 101036.910.8 -6.1
2017-Nov-10 19:00N 44°48' W 082°48'18 9.2 320 / 121036.210.8 -6.6
2017-Nov-10 17:00N 45°06' W 082°54'2914.9 320 / 161036.210.8 -8.8
2017-Nov-10 15:01N 45°27' W 083°24'3133.1
2017-Nov-10 15:00N 45°30' W 083°24'333.3 330 / 161036.210.8 -9.4
2017-Nov-10 14:55N 45°27' W 083°25'410.9
2017-Nov-10 14:30N 45°30' W 083°30'510.8
2017-Nov-10 14:00N 45°34' W 083°36'510.8
2017-Nov-10 13:30N 45°37' W 083°42'510.8
2017-Nov-10 13:00N 45°41' W 083°48'1166.8
2017-Nov-10 13:00N 45°42' W 083°48'14 7.0 360 / 181034.1 -12.7
2017-Nov-10 11:00N 45°48' W 084°06'8173.8 360 / 211033.5 -14.4
2017-Nov-10 10:57N 45°55' W 084°12'8 0.5
2017-Nov-09 19:00N 45°48' W 084°06'7 7.3 320 / 301012.810.8 -3.3
2017-Nov-09 18:00N 45°42' W 084°00'1312.7 300 / 311011.510.8 -1.1
2017-Nov-09 17:00N 45°30' W 083°54'3 6.3 310 / 281010.810.8 -0.5
2017-Nov-09 16:34N 45°32' W 083°51'110.0
2017-Nov-09 16:27N 45°31' W 083°50'510.3
2017-Nov-09 16:00N 45°27' W 083°47'0 0.7
2017-Nov-09 15:30N 45°26' W 083°47'0 0.7
2017-Nov-09 14:58N 45°26' W 083°47'0 0.2
2017-Nov-09 14:28N 45°26' W 083°47'0 0.1
2017-Nov-09 13:58N 45°26' W 083°47'0 0.0
2017-Nov-09 13:28N 45°26' W 083°47'0 0.0
2017-Nov-09 12:58N 45°26' W 083°47'0 0.0
2017-Nov-09 12:28N 45°26' W 083°47'0 0.1
2017-Nov-09 11:58N 45°26' W 083°47'0 0.0
2017-Nov-09 11:28N 45°26' W 083°47'0 0.0
2017-Nov-09 10:58N 45°26' W 083°47'0 0.1
2017-Nov-09 10:28N 45°26' W 083°47'0 0.2
2017-Nov-09 09:58N 45°26' W 083°47'0 0.1
2017-Nov-09 09:30N 45°26' W 083°47'0 0.1
2017-Nov-09 08:58N 45°26' W 083°47'0 0.1
2017-Nov-09 08:28N 45°26' W 083°47'0 0.1
2017-Nov-09 07:58N 45°26' W 083°47'0 0.1
2017-Nov-09 07:28N 45°26' W 083°47'0 0.1
2017-Nov-09 06:58N 45°26' W 083°47'1 3.0
2017-Nov-09 06:30N 45°27' W 083°46'511.0
2017-Nov-09 06:00N 45°33' W 083°48'5322.3
2017-Nov-09 06:00N 45°30' W 083°42'1118.5 230 / 121017.6 5.4 1.6
2017-Nov-09 05:25N 45°39' W 083°49'3 6.9
2017-Nov-09 05:00N 45°42' W 083°48'1312.7 300 / 81017.6 5.4 1.1
2017-Nov-09 04:00N 45°54' W 083°54'   310 / 101018.210.8 -0.0

Dump ship's entire track history